Time;durP1;ratioP1;P1;durP2;ratioP2;P2;SDS_P1;SDS_P2;PMS_P1;PMS_P2;Temp;Humidity;BMP_temperature;BMP_pressure;BME280_temperature;BME280_humidity;BME280_pressure;Samples;Min_cycle;Max_cycle;Signal;HPM_P1;HPM_P2
2022/04/03 00:00:18;;;;;;;;;;;0.90;75.10;;;;;;2032231;29;19915;-90
2022/04/03 00:01:37;;;;;;;;;;;0.90;75.10;;;;;;2033864;29;19986;-91
2022/04/03 00:02:57;;;;;;;;;;;0.90;75.10;;;;;;2031220;29;19919;-92
2022/04/03 00:04:16;;;;;;;;;;;0.90;75.10;;;;;;2041313;29;19919;-92
2022/04/03 00:05:41;;;;;;;;;;;0.80;75.20;;;;;;2039097;29;19954;-91
2022/04/03 00:07:02;;;;;;;;;;;0.80;75.10;;;;;;2029100;29;19915;-91
2022/04/03 00:08:22;;;;;;;;;;;0.80;75.20;;;;;;2034412;29;19915;-91
2022/04/03 00:09:41;;;;;;;;;;;0.90;75.20;;;;;;2047226;29;19914;-91
2022/04/03 00:11:00;;;;;;;;;;;0.80;75.10;;;;;;2047168;29;19950;-91
2022/04/03 00:12:20;;;;;;;;;;;0.80;75.20;;;;;;2037958;29;19915;-90
2022/04/03 00:13:39;;;;;;;;;;;0.90;75.30;;;;;;2046387;29;19910;-91
2022/04/03 00:14:58;;;;;;;;;;;0.80;75.10;;;;;;2045429;29;19910;-91
2022/04/03 00:16:18;;;;;;;;;;;0.90;75.20;;;;;;2034244;29;19915;-91
2022/04/03 00:17:38;;;;;;;;;;;0.80;75.20;;;;;;2035985;29;19926;-91
2022/04/03 00:18:57;;;;;;;;;;;0.80;75.20;;;;;;2034121;29;20562;-91
2022/04/03 00:20:16;;;;;;;;;;;0.80;75.30;;;;;;2030999;29;19978;-91
2022/04/03 00:21:36;;;;;;;;;;;0.80;75.30;;;;;;2022561;29;19927;-91
2022/04/03 00:22:55;;;;;;;;;;;0.80;75.40;;;;;;2035122;29;20627;-92
2022/04/03 00:24:15;;;;;;;;;;;0.80;75.30;;;;;;2040831;29;19929;-91
2022/04/03 00:25:34;;;;;;;;;;;0.80;75.40;;;;;;2035884;29;19907;-91
2022/04/03 00:26:54;;;;;;;;;;;0.80;75.40;;;;;;2046885;29;20357;-90
2022/04/03 00:28:15;;;;;;;;;;;0.80;75.40;;;;;;2051803;29;19910;-91
2022/04/03 00:29:34;;;;;;;;;;;0.80;75.40;;;;;;2043046;29;19918;-91
2022/04/03 00:30:53;;;;;;;;;;;0.80;75.40;;;;;;2040599;29;19915;-91
2022/04/03 00:32:12;;;;;;;;;;;0.80;75.40;;;;;;2032017;29;19911;-91
2022/04/03 00:33:31;;;;;;;;;;;0.70;75.40;;;;;;2035775;29;20366;-91
2022/04/03 00:34:51;;;;;;;;;;;0.70;75.40;;;;;;2027862;29;19919;-91
2022/04/03 00:36:10;;;;;;;;;;;0.70;75.50;;;;;;2036041;29;19914;-91
2022/04/03 00:37:29;;;;;;;;;;;0.70;75.50;;;;;;2028354;29;19911;-91
2022/04/03 00:38:49;;;;;;;;;;;0.70;75.60;;;;;;2029562;29;19915;-91
2022/04/03 00:40:08;;;;;;;;;;;0.70;75.60;;;;;;2034736;29;19919;-91
2022/04/03 00:41:28;;;;;;;;;;;0.70;75.60;;;;;;2037866;29;20353;-91
2022/04/03 00:42:47;;;;;;;;;;;0.60;75.60;;;;;;2041458;29;19918;-91
2022/04/03 00:44:06;;;;;;;;;;;0.60;75.70;;;;;;2040407;29;19949;-91
2022/04/03 00:45:26;;;;;;;;;;;0.70;75.80;;;;;;2031922;29;19960;-91
2022/04/03 00:46:46;;;;;;;;;;;0.60;75.80;;;;;;2032076;29;19915;-91
2022/04/03 00:48:06;;;;;;;;;;;0.60;75.80;;;;;;2045645;29;19996;-90
2022/04/03 00:49:25;;;;;;;;;;;0.60;75.80;;;;;;2036656;29;19915;-91
2022/04/03 00:50:45;;;;;;;;;;;0.50;75.80;;;;;;2039630;29;19911;-90
2022/04/03 00:52:04;;;;;;;;;;;0.60;75.90;;;;;;2041670;29;19911;-91
2022/04/03 00:53:24;;;;;;;;;;;0.50;75.80;;;;;;2047709;29;19899;-88
2022/04/03 00:54:44;;;;;;;;;;;0.50;75.90;;;;;;2039343;29;19919;-91
2022/04/03 00:56:03;;;;;;;;;;;0.50;75.90;;;;;;2041244;29;19899;-83
2022/04/03 00:57:23;;;;;;;;;;;0.50;75.90;;;;;;2042133;29;19903;-88
2022/04/03 00:58:42;;;;;;;;;;;0.50;76.00;;;;;;2042803;29;19923;-92
2022/04/03 01:00:03;;;;;;;;;;;0.50;76.00;;;;;;2032832;29;19915;-91
2022/04/03 01:01:22;;;;;;;;;;;0.40;76.00;;;;;;2036509;29;19910;-92
2022/04/03 01:02:41;;;;;;;;;;;0.40;76.00;;;;;;2031829;29;19911;-91
2022/04/03 01:04:01;;;;;;;;;;;0.40;76.00;;;;;;2045445;29;19915;-92
2022/04/03 01:05:21;;;;;;;;;;;0.50;76.00;;;;;;2058008;28;19895;-82
2022/04/03 01:06:40;;;;;;;;;;;0.40;76.00;;;;;;2044921;29;19911;-86
2022/04/03 01:08:00;;;;;;;;;;;0.40;76.00;;;;;;2029514;29;19911;-92
2022/04/03 01:09:19;;;;;;;;;;;0.50;76.00;;;;;;2035366;29;19974;-91
2022/04/03 01:10:39;;;;;;;;;;;0.40;76.00;;;;;;2042951;29;19922;-92
2022/04/03 01:11:58;;;;;;;;;;;0.50;76.00;;;;;;2042676;29;19911;-91
2022/04/03 01:13:18;;;;;;;;;;;0.40;76.00;;;;;;2040058;29;20042;-91
2022/04/03 01:14:38;;;;;;;;;;;0.40;76.00;;;;;;2047141;29;19918;-91
2022/04/03 01:15:59;;;;;;;;;;;0.40;76.10;;;;;;2042977;29;19910;-91
2022/04/03 01:17:18;;;;;;;;;;;0.40;76.00;;;;;;2047686;29;19911;-90
2022/04/03 01:18:38;;;;;;;;;;;0.50;76.10;;;;;;2051557;29;20332;-91
2022/04/03 01:19:57;;;;;;;;;;;0.40;76.10;;;;;;2050949;28;20001;-91
2022/04/03 01:21:17;;;;;;;;;;;0.40;76.10;;;;;;2035285;29;19911;-91
2022/04/03 01:22:37;;;;;;;;;;;0.40;76.10;;;;;;2040145;29;19910;-92
2022/04/03 01:23:56;;;;;;;;;;;0.40;76.10;;;;;;2043777;29;19915;-91
2022/04/03 01:25:15;;;;;;;;;;;0.40;76.10;;;;;;2043641;29;20281;-91
2022/04/03 01:26:35;;;;;;;;;;;0.40;76.10;;;;;;2043838;29;19997;-91
2022/04/03 01:27:54;;;;;;;;;;;0.40;76.10;;;;;;2031036;29;19910;-91
2022/04/03 01:29:13;;;;;;;;;;;0.40;76.20;;;;;;2039993;29;19919;-91
2022/04/03 01:30:32;;;;;;;;;;;0.40;76.30;;;;;;2040136;29;19911;-91
2022/04/03 01:31:52;;;;;;;;;;;0.40;76.20;;;;;;2043425;29;19907;-91
2022/04/03 01:33:12;;;;;;;;;;;0.40;76.30;;;;;;2035428;29;20343;-91
2022/04/03 01:34:31;;;;;;;;;;;0.30;76.20;;;;;;2039720;29;19919;-91
2022/04/03 01:35:50;;;;;;;;;;;0.30;76.20;;;;;;2030856;29;19923;-91
2022/04/03 01:37:09;;;;;;;;;;;0.30;76.30;;;;;;2036836;29;20024;-92
2022/04/03 01:38:28;;;;;;;;;;;0.30;76.40;;;;;;2029237;29;19933;-91
2022/04/03 01:39:48;;;;;;;;;;;0.30;76.50;;;;;;2039952;29;20461;-92
2022/04/03 01:41:07;;;;;;;;;;;0.30;76.50;;;;;;2039215;29;19914;-91
2022/04/03 01:42:26;;;;;;;;;;;0.30;76.50;;;;;;2043109;29;20417;-91
2022/04/03 01:43:45;;;;;;;;;;;0.30;76.50;;;;;;2039928;29;19907;-91
2022/04/03 01:45:06;;;;;;;;;;;0.30;76.50;;;;;;2041260;29;19915;-91
2022/04/03 01:46:26;;;;;;;;;;;0.30;76.50;;;;;;2033549;29;19915;-91
2022/04/03 01:47:45;;;;;;;;;;;0.30;76.50;;;;;;2031314;29;20002;-91
2022/04/03 01:49:05;;;;;;;;;;;0.30;76.60;;;;;;2044591;29;19918;-91
2022/04/03 01:50:25;;;;;;;;;;;0.20;76.50;;;;;;2035899;29;19997;-92
2022/04/03 01:51:45;;;;;;;;;;;0.20;76.60;;;;;;2035570;29;19919;-91
2022/04/03 01:53:05;;;;;;;;;;;0.20;76.70;;;;;;2039667;29;19946;-89
2022/04/03 01:54:24;;;;;;;;;;;0.20;76.70;;;;;;2052545;29;19914;-90
2022/04/03 01:55:44;;;;;;;;;;;0.20;76.60;;;;;;2052419;29;19903;-91
2022/04/03 01:57:03;;;;;;;;;;;0.20;76.80;;;;;;2052122;29;19911;-91
2022/04/03 01:58:22;;;;;;;;;;;0.20;76.70;;;;;;2037062;29;19963;-91
2022/04/03 01:59:42;;;;;;;;;;;0.20;76.70;;;;;;2041099;29;19915;-92
2022/04/03 02:01:01;;;;;;;;;;;0.20;76.80;;;;;;2043736;29;19915;-91
2022/04/03 02:02:20;;;;;;;;;;;0.20;76.70;;;;;;2037836;29;19962;-91
2022/04/03 02:03:40;;;;;;;;;;;0.20;76.80;;;;;;2047996;29;19911;-92
2022/04/03 02:04:59;;;;;;;;;;;0.20;76.80;;;;;;2043202;29;19986;-91
2022/04/03 02:06:18;;;;;;;;;;;0.20;76.90;;;;;;2050827;29;19915;-91
2022/04/03 02:07:38;;;;;;;;;;;0.20;76.80;;;;;;2038704;29;19915;-90
2022/04/03 02:08:57;;;;;;;;;;;0.20;76.80;;;;;;2025425;29;19916;-91
2022/04/03 02:10:16;;;;;;;;;;;0.20;76.80;;;;;;2045347;29;20377;-91
2022/04/03 02:11:36;;;;;;;;;;;0.20;76.80;;;;;;2059151;28;19918;-91
2022/04/03 02:12:55;;;;;;;;;;;0.20;76.90;;;;;;2051462;28;20001;-91
2022/04/03 02:14:14;;;;;;;;;;;0.20;76.80;;;;;;2052003;29;19910;-91
2022/04/03 02:15:33;;;;;;;;;;;0.30;77.00;;;;;;2051660;29;19918;-91
2022/04/03 02:16:56;;;;;;;;;;;0.30;77.00;;;;;;2043296;29;20440;-91
2022/04/03 02:18:15;;;;;;;;;;;0.30;77.00;;;;;;2050329;28;19906;-92
2022/04/03 02:19:34;;;;;;;;;;;0.30;77.00;;;;;;2049600;29;19997;-91
2022/04/03 02:20:54;;;;;;;;;;;0.30;77.10;;;;;;2045985;29;19915;-91
2022/04/03 02:22:14;;;;;;;;;;;0.30;77.10;;;;;;2050850;28;19957;-91
2022/04/03 02:23:33;;;;;;;;;;;0.30;77.10;;;;;;2050150;29;19915;-92
2022/04/03 02:24:52;;;;;;;;;;;0.30;77.10;;;;;;2047700;29;19915;-91
2022/04/03 02:26:11;;;;;;;;;;;0.30;77.00;;;;;;2055802;28;19910;-92
2022/04/03 02:27:31;;;;;;;;;;;0.30;77.10;;;;;;2058293;28;19910;-91
2022/04/03 02:28:51;;;;;;;;;;;0.30;77.10;;;;;;2050065;29;19959;-91
2022/04/03 02:30:10;;;;;;;;;;;0.30;77.20;;;;;;2042671;29;19915;-92
2022/04/03 02:31:30;;;;;;;;;;;0.30;77.10;;;;;;2044217;29;19906;-91
2022/04/03 02:32:49;;;;;;;;;;;0.30;77.20;;;;;;2040001;29;19911;-92
2022/04/03 02:34:08;;;;;;;;;;;0.30;77.20;;;;;;2040596;29;20349;-91
2022/04/03 02:35:28;;;;;;;;;;;0.30;77.30;;;;;;2040417;29;19911;-92
2022/04/03 02:36:47;;;;;;;;;;;0.30;77.20;;;;;;2037059;29;20382;-91
2022/04/03 02:38:07;;;;;;;;;;;0.30;77.20;;;;;;2039447;29;20318;-91
2022/04/03 02:39:26;;;;;;;;;;;0.30;77.30;;;;;;2046361;29;19989;-91
2022/04/03 02:40:45;;;;;;;;;;;0.30;77.40;;;;;;2047201;29;19910;-91
2022/04/03 02:42:04;;;;;;;;;;;0.30;77.30;;;;;;2050567;29;19919;-91
2022/04/03 02:43:24;;;;;;;;;;;0.30;77.30;;;;;;2054619;28;20361;-91
2022/04/03 02:44:43;;;;;;;;;;;0.30;77.40;;;;;;2043977;29;20308;-91
2022/04/03 02:46:02;;;;;;;;;;;0.40;77.40;;;;;;2048431;28;19898;-84
2022/04/03 02:47:25;;;;;;;;;;;0.40;77.50;;;;;;2045915;29;19919;-90
2022/04/03 02:48:44;;;;;;;;;;;0.40;77.60;;;;;;2052690;28;19950;-90
2022/04/03 02:50:04;;;;;;;;;;;0.40;77.50;;;;;;2040950;29;19915;-91
2022/04/03 02:51:24;;;;;;;;;;;0.40;77.40;;;;;;2062504;28;19898;-90
2022/04/03 02:52:52;;;;;;;;;;;0.40;77.50;;;;;;2050802;29;19911;-92
2022/04/03 02:54:12;;;;;;;;;;;0.40;77.40;;;;;;2054616;28;20052;-91
2022/04/03 02:55:31;;;;;;;;;;;0.40;77.40;;;;;;2058738;28;20381;-92
2022/04/03 02:56:50;;;;;;;;;;;0.50;77.60;;;;;;2042234;29;20207;-91
2022/04/03 02:58:10;;;;;;;;;;;0.40;77.50;;;;;;2040488;29;19910;-91
2022/04/03 02:59:29;;;;;;;;;;;0.40;77.50;;;;;;2041177;29;20253;-91
2022/04/03 03:00:48;;;;;;;;;;;0.40;77.50;;;;;;2041162;29;19911;-90
2022/04/03 03:02:08;;;;;;;;;;;0.40;77.70;;;;;;2044474;28;19914;-91
2022/04/03 03:03:27;;;;;;;;;;;0.50;77.70;;;;;;2043275;29;19918;-91
2022/04/03 03:04:47;;;;;;;;;;;0.50;77.60;;;;;;2044159;28;19918;-91
2022/04/03 03:06:06;;;;;;;;;;;0.50;77.60;;;;;;2050430;29;19911;-91
2022/04/03 03:07:35;;;;;;;;;;;0.50;77.70;;;;;;2040369;29;20009;-91
2022/04/03 03:08:54;;;;;;;;;;;0.50;77.70;;;;;;2046818;29;19911;-91
2022/04/03 03:10:14;;;;;;;;;;;0.50;77.60;;;;;;2051256;29;19910;-91
2022/04/03 03:11:34;;;;;;;;;;;0.50;77.90;;;;;;2045933;29;19919;-91
2022/04/03 03:12:53;;;;;;;;;;;0.50;77.70;;;;;;2042017;29;19914;-92
2022/04/03 03:14:12;;;;;;;;;;;0.50;77.70;;;;;;2042554;29;19911;-91
2022/04/03 03:15:32;;;;;;;;;;;0.50;77.70;;;;;;2057466;28;19917;-91
2022/04/03 03:16:51;;;;;;;;;;;0.50;77.80;;;;;;2051356;29;19915;-91
2022/04/03 03:18:10;;;;;;;;;;;0.50;77.70;;;;;;2040588;28;20369;-91
2022/04/03 03:19:29;;;;;;;;;;;0.60;77.90;;;;;;2040278;29;19914;-91
2022/04/03 03:20:49;;;;;;;;;;;0.60;77.90;;;;;;2059302;28;20444;-91
2022/04/03 03:22:08;;;;;;;;;;;0.60;77.90;;;;;;2049037;29;19931;-91
2022/04/03 03:23:29;;;;;;;;;;;0.60;77.80;;;;;;2047317;29;19997;-91
2022/04/03 03:24:48;;;;;;;;;;;0.60;77.90;;;;;;2047294;29;19916;-91
2022/04/03 03:26:08;;;;;;;;;;;0.60;77.90;;;;;;2051669;28;20353;-91
2022/04/03 03:27:27;;;;;;;;;;;0.70;77.90;;;;;;2052698;28;19910;-91
2022/04/03 03:28:47;;;;;;;;;;;0.70;77.80;;;;;;2050241;29;20005;-90
2022/04/03 03:30:07;;;;;;;;;;;0.70;77.70;;;;;;2051497;29;19915;-91
2022/04/03 03:31:27;;;;;;;;;;;0.70;77.80;;;;;;2051015;29;20196;-91
2022/04/03 03:32:46;;;;;;;;;;;0.70;77.80;;;;;;2054827;28;19957;-92
2022/04/03 03:34:05;;;;;;;;;;;0.70;77.80;;;;;;2058330;28;19914;-91
2022/04/03 03:35:24;;;;;;;;;;;0.70;77.80;;;;;;2054767;28;19949;-90
2022/04/03 03:36:43;;;;;;;;;;;0.70;77.70;;;;;;2042995;29;19915;-91
2022/04/03 03:38:03;;;;;;;;;;;0.70;77.80;;;;;;2048228;29;20393;-92
2022/04/03 03:39:22;;;;;;;;;;;0.70;77.80;;;;;;2047078;29;19922;-91
2022/04/03 03:40:41;;;;;;;;;;;0.60;77.80;;;;;;2050301;28;19907;-90
2022/04/03 03:42:00;;;;;;;;;;;0.70;78.00;;;;;;2051754;29;19918;-91
2022/04/03 03:43:20;;;;;;;;;;;0.60;78.10;;;;;;2032601;29;20445;-91
2022/04/03 03:44:39;;;;;;;;;;;0.70;78.10;;;;;;2033142;29;19914;-91
2022/04/03 03:45:58;;;;;;;;;;;0.70;78.10;;;;;;2055623;28;19911;-91
2022/04/03 03:47:17;;;;;;;;;;;0.70;78.20;;;;;;2054209;28;19918;-91
2022/04/03 03:48:37;;;;;;;;;;;0.60;78.00;;;;;;2060132;28;19918;-91
2022/04/03 03:49:56;;;;;;;;;;;0.70;78.10;;;;;;2058718;28;19914;-91
2022/04/03 03:51:15;;;;;;;;;;;0.60;78.00;;;;;;2050105;29;19949;-91
2022/04/03 03:52:34;;;;;;;;;;;0.70;78.10;;;;;;2033666;29;19915;-91
2022/04/03 03:53:54;;;;;;;;;;;0.70;78.10;;;;;;2043830;28;20373;-90
2022/04/03 03:55:15;;;;;;;;;;;0.70;78.10;;;;;;2046865;29;19914;-91
2022/04/03 03:56:34;;;;;;;;;;;0.70;78.20;;;;;;2055432;28;19957;-91
2022/04/03 03:57:53;;;;;;;;;;;0.70;78.20;;;;;;2057041;28;19914;-91
2022/04/03 03:59:14;;;;;;;;;;;0.70;78.20;;;;;;2058395;28;19914;-91
2022/04/03 04:00:35;;;;;;;;;;;0.70;78.30;;;;;;2049968;29;19911;-91
2022/04/03 04:01:54;;;;;;;;;;;0.70;78.40;;;;;;2046829;29;19914;-91
2022/04/03 04:03:13;;;;;;;;;;;0.70;78.40;;;;;;2034123;29;19911;-91
2022/04/03 04:04:34;;;;;;;;;;;0.70;78.40;;;;;;2031208;29;19919;-91
2022/04/03 04:05:53;;;;;;;;;;;0.70;78.40;;;;;;2044185;29;19946;-91
2022/04/03 04:07:12;;;;;;;;;;;0.70;78.40;;;;;;2046517;29;19915;-92
2022/04/03 04:08:32;;;;;;;;;;;0.70;78.40;;;;;;2041421;29;20382;-90
2022/04/03 04:09:51;;;;;;;;;;;0.70;78.40;;;;;;2046566;28;20001;-91
2022/04/03 04:11:10;;;;;;;;;;;0.70;78.40;;;;;;2047690;29;19954;-91
2022/04/03 04:12:29;;;;;;;;;;;0.70;78.40;;;;;;2046913;29;19911;-91
2022/04/03 04:13:48;;;;;;;;;;;0.70;78.40;;;;;;2046520;29;19914;-92
2022/04/03 04:15:08;;;;;;;;;;;0.70;78.40;;;;;;2046181;29;19914;-91
2022/04/03 04:16:28;;;;;;;;;;;0.70;78.40;;;;;;2043003;29;20354;-90
2022/04/03 04:17:47;;;;;;;;;;;0.70;78.50;;;;;;2044356;29;19914;-91
2022/04/03 04:19:06;;;;;;;;;;;0.70;78.60;;;;;;2051166;29;20538;-91
2022/04/03 04:20:27;;;;;;;;;;;0.70;78.70;;;;;;2042262;29;20010;-92
2022/04/03 04:21:46;;;;;;;;;;;0.70;78.70;;;;;;2048507;28;20281;-91
2022/04/03 04:23:05;;;;;;;;;;;0.60;78.60;;;;;;2057984;28;19917;-91
2022/04/03 04:24:24;;;;;;;;;;;0.70;78.70;;;;;;2041592;29;20009;-91
2022/04/03 04:25:45;;;;;;;;;;;0.70;78.70;;;;;;2046040;28;20353;-92
2022/04/03 04:27:04;;;;;;;;;;;0.70;78.70;;;;;;2045543;29;19918;-91
2022/04/03 04:28:24;;;;;;;;;;;0.70;78.80;;;;;;2054143;28;20004;-91
2022/04/03 04:29:43;;;;;;;;;;;0.70;78.80;;;;;;2034292;29;19955;-91
2022/04/03 04:31:02;;;;;;;;;;;0.70;78.80;;;;;;2038779;29;19915;-91
2022/04/03 04:32:22;;;;;;;;;;;0.70;78.80;;;;;;2042152;29;19958;-92
2022/04/03 04:33:41;;;;;;;;;;;0.70;78.80;;;;;;2038316;29;19907;-91
2022/04/03 04:35:00;;;;;;;;;;;0.70;78.70;;;;;;2044207;29;19919;-92
2022/04/03 04:36:19;;;;;;;;;;;0.70;78.70;;;;;;2046350;29;19914;-91
2022/04/03 04:37:39;;;;;;;;;;;0.70;78.70;;;;;;2046582;29;19910;-91
2022/04/03 04:38:58;;;;;;;;;;;0.80;78.80;;;;;;2052840;28;19915;-91
2022/04/03 04:40:17;;;;;;;;;;;0.80;78.70;;;;;;2052749;28;19918;-90
2022/04/03 04:41:37;;;;;;;;;;;0.80;78.80;;;;;;2059909;28;19977;-91
2022/04/03 04:42:56;;;;;;;;;;;0.80;78.70;;;;;;2055069;28;19898;-84
2022/04/03 04:44:15;;;;;;;;;;;0.80;78.70;;;;;;2048829;29;20345;-91
2022/04/03 04:45:35;;;;;;;;;;;0.80;78.60;;;;;;2041202;29;19915;-84
2022/04/03 04:46:54;;;;;;;;;;;0.90;78.60;;;;;;2056473;28;19906;-87
2022/04/03 04:48:13;;;;;;;;;;;0.90;78.60;;;;;;2050811;29;19993;-91
2022/04/03 04:49:33;;;;;;;;;;;0.90;78.60;;;;;;2040750;29;19971;-91
2022/04/03 04:50:52;;;;;;;;;;;0.90;78.60;;;;;;2044093;29;19946;-91
2022/04/03 04:52:12;;;;;;;;;;;0.90;78.60;;;;;;2050051;29;19906;-91
2022/04/03 04:53:31;;;;;;;;;;;0.90;78.60;;;;;;2035184;29;19911;-91
2022/04/03 04:54:50;;;;;;;;;;;0.90;78.60;;;;;;2051015;29;19942;-91
2022/04/03 04:56:12;;;;;;;;;;;1.00;78.60;;;;;;2051815;28;19898;-81
2022/04/03 04:57:32;;;;;;;;;;;1.00;78.60;;;;;;2047445;29;19914;-91
2022/04/03 04:58:51;;;;;;;;;;;1.00;78.60;;;;;;2048796;29;19930;-91
2022/04/03 05:00:13;;;;;;;;;;;1.00;78.60;;;;;;2040493;29;20373;-91
2022/04/03 05:01:32;;;;;;;;;;;1.00;78.60;;;;;;2036418;29;19915;-91
2022/04/03 05:02:52;;;;;;;;;;;1.00;78.60;;;;;;2030909;29;19919;-91
2022/04/03 05:04:11;;;;;;;;;;;1.10;78.60;;;;;;2043526;29;19910;-91
2022/04/03 05:05:32;;;;;;;;;;;1.10;78.60;;;;;;2047020;28;20080;-92
2022/04/03 05:06:52;;;;;;;;;;;1.10;78.60;;;;;;2042392;29;19914;-91
2022/04/03 05:08:12;;;;;;;;;;;1.10;78.60;;;;;;2040306;29;19907;-91
2022/04/03 05:09:31;;;;;;;;;;;1.10;78.50;;;;;;2033439;29;20002;-91
2022/04/03 05:10:52;;;;;;;;;;;1.20;78.60;;;;;;2052110;28;19922;-91
2022/04/03 05:12:13;;;;;;;;;;;1.20;78.60;;;;;;2051248;29;20043;-91
2022/04/03 05:13:32;;;;;;;;;;;1.20;78.60;;;;;;2045045;29;19915;-91
2022/04/03 05:14:52;;;;;;;;;;;1.20;78.50;;;;;;2045006;29;19915;-90
2022/04/03 05:16:11;;;;;;;;;;;1.20;78.60;;;;;;2049769;28;19919;-91
2022/04/03 05:17:32;;;;;;;;;;;1.20;78.50;;;;;;2047722;29;19914;-91
2022/04/03 05:18:54;;;;;;;;;;;1.20;78.50;;;;;;2055087;28;19922;-91
2022/04/03 05:20:14;;;;;;;;;;;1.20;78.50;;;;;;2043211;29;19978;-90
2022/04/03 05:21:33;;;;;;;;;;;1.30;78.50;;;;;;2049686;28;19950;-91
2022/04/03 05:22:53;;;;;;;;;;;1.30;78.50;;;;;;2050761;29;19914;-91
2022/04/03 05:24:12;;;;;;;;;;;1.30;78.50;;;;;;2055259;28;19918;-91
2022/04/03 05:25:31;;;;;;;;;;;1.30;78.50;;;;;;2045490;29;19953;-90
2022/04/03 05:26:50;;;;;;;;;;;1.30;78.50;;;;;;2043892;29;19914;-91
2022/04/03 05:28:09;;;;;;;;;;;1.30;78.50;;;;;;2047894;29;19906;-91
2022/04/03 05:29:28;;;;;;;;;;;1.30;78.50;;;;;;2052621;28;19914;-91
2022/04/03 05:30:48;;;;;;;;;;;1.40;78.60;;;;;;2048778;28;19914;-91
2022/04/03 05:32:07;;;;;;;;;;;1.40;78.50;;;;;;2042551;29;19949;-91
2022/04/03 05:33:26;;;;;;;;;;;1.40;78.50;;;;;;2047781;29;19914;-91
2022/04/03 05:34:45;;;;;;;;;;;1.40;78.50;;;;;;2044961;29;19914;-91
2022/04/03 05:36:05;;;;;;;;;;;1.40;78.40;;;;;;2048170;28;19930;-91
2022/04/03 05:37:24;;;;;;;;;;;1.50;78.50;;;;;;2047319;29;20361;-92
2022/04/03 05:38:43;;;;;;;;;;;1.50;78.50;;;;;;2060522;28;19909;-90
2022/04/03 05:40:04;;;;;;;;;;;1.50;78.40;;;;;;2056442;28;19914;-91
2022/04/03 05:41:24;;;;;;;;;;;1.50;78.40;;;;;;2055836;28;19906;-91
2022/04/03 05:42:43;;;;;;;;;;;1.50;78.40;;;;;;2047452;29;19927;-92
2022/04/03 05:44:02;;;;;;;;;;;1.50;78.40;;;;;;2047118;28;19915;-91
2022/04/03 05:45:21;;;;;;;;;;;1.50;78.40;;;;;;2052552;28;19910;-91
2022/04/03 05:46:40;;;;;;;;;;;1.60;78.40;;;;;;2055180;28;19910;-90
2022/04/03 05:47:59;;;;;;;;;;;1.60;78.40;;;;;;2046024;29;20001;-91
2022/04/03 05:49:18;;;;;;;;;;;1.60;78.40;;;;;;2048953;28;19958;-91
2022/04/03 05:50:38;;;;;;;;;;;1.60;78.40;;;;;;2050199;28;19918;-92
2022/04/03 05:51:57;;;;;;;;;;;1.60;78.40;;;;;;2055270;28;19914;-91
2022/04/03 05:53:16;;;;;;;;;;;1.60;78.40;;;;;;2051956;28;19910;-90
2022/04/03 05:54:35;;;;;;;;;;;1.70;78.40;;;;;;2051404;28;19915;-91
2022/04/03 05:55:55;;;;;;;;;;;1.70;78.40;;;;;;2050549;28;19910;-90
2022/04/03 05:57:14;;;;;;;;;;;1.70;78.40;;;;;;2053072;28;19910;-92
2022/04/03 05:58:34;;;;;;;;;;;1.70;78.40;;;;;;2059452;28;19918;-90
2022/04/03 05:59:53;;;;;;;;;;;1.70;78.40;;;;;;2058630;28;19918;-91
2022/04/03 06:01:12;;;;;;;;;;;1.70;78.40;;;;;;2058861;28;19914;-90
2022/04/03 06:02:40;;;;;;;;;;;1.70;78.40;;;;;;2061473;28;19926;-90
2022/04/03 06:03:59;;;;;;;;;;;1.70;78.40;;;;;;2067274;28;20000;-91
2022/04/03 06:05:20;;;;;;;;;;;1.70;78.40;;;;;;2067423;28;19909;-91
2022/04/03 06:06:39;;;;;;;;;;;1.80;78.40;;;;;;2066590;28;20272;-90
2022/04/03 06:07:58;;;;;;;;;;;1.80;78.40;;;;;;2061021;28;19914;-91
2022/04/03 06:09:17;;;;;;;;;;;1.80;78.40;;;;;;2066334;28;19970;-90
2022/04/03 06:10:37;;;;;;;;;;;1.80;78.40;;;;;;2056788;29;19918;-91
2022/04/03 06:11:56;;;;;;;;;;;1.80;78.40;;;;;;2066987;28;19906;-90
2022/04/03 06:13:15;;;;;;;;;;;1.80;78.40;;;;;;2067272;28;19965;-90
2022/04/03 06:14:34;;;;;;;;;;;1.80;78.40;;;;;;2050854;29;19915;-90
2022/04/03 06:15:53;;;;;;;;;;;1.80;78.50;;;;;;2051089;29;19997;-91
2022/04/03 06:17:13;;;;;;;;;;;1.80;78.40;;;;;;2056369;28;19949;-91
2022/04/03 06:18:32;;;;;;;;;;;1.80;78.50;;;;;;2061112;28;19910;-89
2022/04/03 06:19:52;;;;;;;;;;;1.80;78.40;;;;;;2058343;29;19919;-93
2022/04/03 06:21:11;;;;;;;;;;;1.80;78.50;;;;;;2059340;28;19914;-91
2022/04/03 06:22:30;;;;;;;;;;;1.80;78.50;;;;;;2069583;28;19934;-88
2022/04/03 06:23:49;;;;;;;;;;;1.80;78.50;;;;;;2056745;28;19918;-92
2022/04/03 06:25:09;;;;;;;;;;;1.80;78.50;;;;;;2063581;28;19913;-91
2022/04/03 06:26:28;;;;;;;;;;;1.80;78.50;;;;;;2056567;28;19965;-90
2022/04/03 06:27:48;;;;;;;;;;;1.80;78.50;;;;;;2051062;29;19919;-90
2022/04/03 06:29:07;;;;;;;;;;;1.80;78.60;;;;;;2055038;28;19922;-89
2022/04/03 06:30:26;;;;;;;;;;;1.80;78.60;;;;;;2062800;28;19910;-91
2022/04/03 06:31:45;;;;;;;;;;;1.80;78.60;;;;;;2063883;28;19913;-90
2022/04/03 06:33:04;;;;;;;;;;;1.80;78.60;;;;;;2050173;28;19914;-91
2022/04/03 06:34:24;;;;;;;;;;;1.80;78.60;;;;;;2050476;28;20277;-90
2022/04/03 06:35:44;;;;;;;;;;;1.80;78.60;;;;;;2054956;28;19910;-91
2022/04/03 06:37:03;;;;;;;;;;;1.80;78.60;;;;;;2063110;28;20373;-90
2022/04/03 06:38:22;;;;;;;;;;;1.80;78.60;;;;;;2049147;29;19969;-89
2022/04/03 06:39:42;;;;;;;;;;;1.90;78.60;;;;;;2048230;29;19914;-89
2022/04/03 06:41:01;;;;;;;;;;;1.90;78.60;;;;;;2054972;28;19910;-89
2022/04/03 06:42:20;;;;;;;;;;;1.90;78.50;;;;;;2057537;28;20005;-88
2022/04/03 06:43:39;;;;;;;;;;;1.90;78.50;;;;;;2047150;29;19918;-90
2022/04/03 06:44:59;;;;;;;;;;;2.00;78.50;;;;;;2060346;28;19917;-91
2022/04/03 06:46:18;;;;;;;;;;;2.00;78.50;;;;;;2050781;29;19946;-92
2022/04/03 06:47:37;;;;;;;;;;;2.00;78.50;;;;;;2050239;29;19918;-91
2022/04/03 06:48:57;;;;;;;;;;;2.00;78.50;;;;;;2060276;28;19914;-91
2022/04/03 06:50:16;;;;;;;;;;;2.00;78.40;;;;;;2071093;28;19898;-91
2022/04/03 06:51:36;;;;;;;;;;;2.10;78.40;;;;;;2064206;28;20000;-90
2022/04/03 06:52:55;;;;;;;;;;;2.10;78.40;;;;;;2052669;28;19918;-90
2022/04/03 06:54:14;;;;;;;;;;;2.10;78.40;;;;;;2060353;28;19913;-90
2022/04/03 06:55:33;;;;;;;;;;;2.20;78.40;;;;;;2066623;28;19937;-90
2022/04/03 06:56:53;;;;;;;;;;;2.20;78.40;;;;;;2066621;28;19910;-91
2022/04/03 06:58:12;;;;;;;;;;;2.20;78.30;;;;;;2054842;28;19918;-90
2022/04/03 06:59:31;;;;;;;;;;;2.20;78.30;;;;;;2055241;28;19997;-91
2022/04/03 07:00:51;;;;;;;;;;;2.30;78.30;;;;;;2047837;29;20008;-90
2022/04/03 07:02:10;;;;;;;;;;;2.30;78.30;;;;;;2059415;28;19917;-90
2022/04/03 07:03:31;;;;;;;;;;;2.30;78.30;;;;;;2050625;28;19958;-90
2022/04/03 07:04:51;;;;;;;;;;;2.30;78.20;;;;;;2054437;28;19914;-90
2022/04/03 07:06:11;;;;;;;;;;;2.40;78.20;;;;;;2055456;28;19910;-91
2022/04/03 07:07:30;;;;;;;;;;;2.40;78.30;;;;;;2052871;28;19917;-91
2022/04/03 07:08:49;;;;;;;;;;;2.40;78.30;;;;;;2050214;28;19906;-91
2022/04/03 07:10:09;;;;;;;;;;;2.50;78.30;;;;;;2046905;29;19910;-91
2022/04/03 07:11:28;;;;;;;;;;;2.50;78.20;;;;;;2052996;28;20019;-91
2022/04/03 07:12:48;;;;;;;;;;;2.50;78.20;;;;;;2061803;28;19914;-91
2022/04/03 07:14:07;;;;;;;;;;;2.60;78.20;;;;;;2053990;28;19918;-90
2022/04/03 07:15:26;;;;;;;;;;;2.60;78.20;;;;;;2054260;28;20373;-91
2022/04/03 07:16:46;;;;;;;;;;;2.60;78.30;;;;;;2045411;28;19922;-89
2022/04/03 07:18:05;;;;;;;;;;;2.60;78.30;;;;;;2043522;29;19926;-91
2022/04/03 07:19:24;;;;;;;;;;;2.70;78.30;;;;;;2058364;28;19914;-90
2022/04/03 07:20:49;;;;;;;;;;;2.70;78.40;;;;;;2044909;28;20314;-91
2022/04/03 07:22:09;;;;;;;;;;;2.70;78.20;;;;;;2052549;28;20340;-92
2022/04/03 07:23:28;;;;;;;;;;;2.80;78.30;;;;;;2054240;28;19917;-91
2022/04/03 07:24:47;;;;;;;;;;;2.80;78.40;;;;;;2046723;28;19922;-91
2022/04/03 07:26:07;;;;;;;;;;;2.80;78.20;;;;;;2053664;28;19992;-91
2022/04/03 07:27:27;;;;;;;;;;;2.80;78.20;;;;;;2065198;28;20428;-91
2022/04/03 07:28:47;;;;;;;;;;;2.90;78.20;;;;;;2061139;28;21274;-90
2022/04/03 07:30:08;;;;;;;;;;;2.90;78.10;;;;;;2064470;28;19941;-91
2022/04/03 07:31:28;;;;;;;;;;;3.00;78.20;;;;;;2064023;28;19910;-91
2022/04/03 07:32:48;;;;;;;;;;;3.00;78.10;;;;;;2059164;28;19953;-92
2022/04/03 07:34:07;;;;;;;;;;;3.00;78.10;;;;;;2064319;28;19918;-93
2022/04/03 07:35:26;;;;;;;;;;;3.10;78.20;;;;;;2055399;28;19922;-91
2022/04/03 07:36:45;;;;;;;;;;;3.10;78.20;;;;;;2048946;28;19918;-93
2022/04/03 07:38:05;;;;;;;;;;;3.10;78.00;;;;;;2048285;28;19914;-90
2022/04/03 07:39:26;;;;;;;;;;;3.20;78.10;;;;;;2052314;28;19914;-90
2022/04/03 07:40:48;;;;;;;;;;;3.30;78.10;;;;;;2045679;29;19910;-90
2022/04/03 07:42:07;;;;;;;;;;;3.30;78.10;;;;;;2055405;28;19922;-91
2022/04/03 07:43:27;;;;;;;;;;;3.30;78.00;;;;;;2046474;29;20001;-91
2022/04/03 07:44:46;;;;;;;;;;;3.40;78.00;;;;;;2051490;28;20337;-91
2022/04/03 07:46:07;;;;;;;;;;;3.40;78.00;;;;;;2053863;28;19914;-91
2022/04/03 07:47:26;;;;;;;;;;;3.40;78.00;;;;;;2047177;29;19910;-91
2022/04/03 07:48:45;;;;;;;;;;;3.40;77.90;;;;;;2059797;28;19910;-92
2022/04/03 07:50:05;;;;;;;;;;;3.50;78.00;;;;;;2049933;29;19914;-90